Time;durP1;ratioP1;P1;durP2;ratioP2;P2;SDS_P1;SDS_P2;PMS_P1;PMS_P2;Temp;Humidity;BMP_temperature;BMP_pressure;BME280_temperature;BME280_humidity;BME280_pressure;Samples;Min_cycle;Max_cycle;Signal;HPM_P1;HPM_P2
2022/10/10 00:01:40;;;;;;;8.43;4.88;;;;;;;12.08;61.58;101393.38;6215447;23;20091;-64
2022/10/10 00:04:06;;;;;;;8.63;5.00;;;;;;;12.02;61.75;101392.41;6215729;23;20005;-64
2022/10/10 00:06:31;;;;;;;7.90;4.70;;;;;;;12.08;61.21;101383.66;6215809;23;20016;-64
2022/10/10 00:08:57;;;;;;;9.35;5.15;;;;;;;12.03;61.83;101386.25;6213834;23;20020;-64
2022/10/10 00:11:23;;;;;;;8.00;4.90;;;;;;;11.93;61.86;101383.44;6215709;23;20135;-64
2022/10/10 00:13:50;;;;;;;6.60;4.80;;;;;;;11.88;62.21;101383.38;6215996;23;20063;-63
2022/10/10 00:16:16;;;;;;;9.25;5.25;;;;;;;11.98;61.36;101381.75;6215734;23;20015;-63
2022/10/10 00:18:42;;;;;;;7.88;5.10;;;;;;;11.93;61.90;101380.78;6215397;23;20103;-64
2022/10/10 00:21:09;;;;;;;9.35;5.40;;;;;;;11.92;61.70;101384.31;6215667;23;20011;-64
2022/10/10 00:23:34;;;;;;;10.55;5.10;;;;;;;11.96;61.88;101384.38;6216010;23;20005;-63
2022/10/10 00:26:00;;;;;;;9.80;5.10;;;;;;;12.05;61.42;101380.09;6215951;23;20005;-64
2022/10/10 00:28:26;;;;;;;7.53;5.07;;;;;;;12.10;61.83;101373.06;6215943;23;20415;-64
2022/10/10 00:30:52;;;;;;;7.40;5.13;;;;;;;12.04;60.83;101371.25;6215644;23;20419;-64
2022/10/10 00:33:17;;;;;;;11.18;5.25;;;;;;;12.10;61.23;101378.38;6215593;23;20001;-64
2022/10/10 00:35:43;;;;;;;10.15;5.45;;;;;;;12.11;61.35;101374.84;6215906;23;20059;-63
2022/10/10 00:38:09;;;;;;;11.95;5.20;;;;;;;12.10;60.52;101370.44;6215634;23;20019;-64
2022/10/10 00:40:35;;;;;;;6.85;5.15;;;;;;;12.20;61.27;101365.25;6215667;23;20446;-64
2022/10/10 00:43:00;;;;;;;8.07;4.80;;;;;;;12.21;60.90;101374.13;6215692;23;20047;-65
2022/10/10 00:45:40;;;;;;;8.95;5.10;;;;;;;12.17;60.77;101369.66;6189000;23;20013;-64
2022/10/10 00:48:08;;;;;;;12.63;5.43;;;;;;;12.13;61.02;101375.78;6215495;23;20000;-64
2022/10/10 00:50:41;;;;;;;6.85;4.63;;;;;;;12.17;61.89;101359.06;6215434;23;20001;-63
2022/10/10 00:53:09;;;;;;;8.60;4.90;;;;;;;12.03;61.36;101359.78;6215609;23;20009;-63
2022/10/10 00:55:35;;;;;;;8.50;5.47;;;;;;;12.02;61.66;101357.97;6215785;23;20004;-62
2022/10/10 00:58:01;;;;;;;10.23;5.20;;;;;;;11.84;61.83;101364.78;6215452;23;20419;-63
2022/10/10 01:00:27;;;;;;;7.43;5.40;;;;;;;11.81;62.77;101351.47;6215495;23;20009;-64
2022/10/10 01:02:52;;;;;;;13.65;5.50;;;;;;;11.69;63.40;101354.81;6215464;23;20032;-64
2022/10/10 01:05:17;;;;;;;9.18;4.90;;;;;;;11.77;62.69;101350.53;6215793;23;20031;-64
2022/10/10 01:07:43;;;;;;;9.75;5.10;;;;;;;11.76;62.64;101349.63;6215402;23;20009;-63
2022/10/10 01:10:16;;;;;;;8.93;5.03;;;;;;;11.74;63.44;101350.50;6215134;23;20008;-64
2022/10/10 01:12:49;;;;;;;11.75;5.30;;;;;;;11.78;62.75;101347.03;6215842;23;20012;-64
2022/10/10 01:15:46;;;;;;;8.88;4.80;;;;;;;11.74;62.60;101346.09;6217390;23;20008;-63
2022/10/10 01:18:34;;;;;;;7.30;4.80;;;;;;;11.71;63.57;101337.22;6217314;23;20032;-64
2022/10/10 01:21:19;;;;;;;10.90;4.38;;;;;;;11.83;62.65;101341.84;6204999;23;20079;-63
2022/10/10 01:23:53;;;;;;;8.10;4.97;;;;;;;11.77;62.82;101345.22;6217150;23;20120;-63
2022/10/10 01:26:43;;;;;;;7.40;4.82;;;;;;;11.67;62.62;101351.28;6217249;23;20028;-63
2022/10/10 01:29:27;;;;;;;9.35;5.00;;;;;;;11.65;63.62;101345.97;6217229;23;20012;-64
2022/10/10 01:31:55;;;;;;;11.05;5.30;;;;;;;11.64;63.24;101349.47;6217536;23;20009;-64
2022/10/10 01:34:40;;;;;;;8.98;5.25;;;;;;;11.70;62.94;101340.75;6217129;23;20005;-63
2022/10/10 01:37:46;;;;;;;11.32;4.95;;;;;;;11.67;63.21;101338.91;6217478;23;20004;-65
2022/10/10 01:40:48;;;;;;;7.68;4.40;;;;;;;11.71;63.30;101332.81;6216622;23;20454;-62
2022/10/10 01:43:14;;;;;;;10.18;5.00;;;;;;;11.62;62.79;101334.44;6217014;23;20015;-63
2022/10/10 01:45:51;;;;;;;7.68;4.97;;;;;;;11.59;62.95;101331.75;6190373;23;20005;-63
2022/10/10 01:48:28;;;;;;;9.00;4.78;;;;;;;11.46;62.96;101333.31;6216986;23;20009;-63
2022/10/10 01:51:09;;;;;;;8.00;5.13;;;;;;;11.42;62.63;101323.56;6216992;23;20008;-63
2022/10/10 01:53:43;;;;;;;7.15;4.90;;;;;;;11.38;63.94;101324.38;6216977;23;20001;-65
2022/10/10 01:56:20;;;;;;;6.70;4.90;;;;;;;11.24;64.33;101324.16;6217325;23;20028;-63
2022/10/10 01:58:55;;;;;;;9.32;5.13;;;;;;;11.27;64.07;101322.47;6217005;23;20011;-65
2022/10/10 02:01:26;;;;;;;7.72;5.00;;;;;;;11.21;64.42;101319.72;6217346;23;20339;-64
2022/10/10 02:04:01;;;;;;;8.63;4.83;;;;;;;11.10;63.85;101321.31;6216957;23;20008;-63
2022/10/10 02:06:42;;;;;;;10.95;5.40;;;;;;;11.00;65.26;101314.97;6216994;23;20247;-64
2022/10/10 02:09:13;;;;;;;7.07;4.87;;;;;;;11.08;64.74;101309.81;6216645;23;20383;-65
2022/10/10 02:11:40;;;;;;;8.00;5.00;;;;;;;11.01;64.88;101310.59;6216827;23;20008;-64
2022/10/10 02:14:15;;;;;;;8.45;5.45;;;;;;;10.95;65.26;101310.47;6216757;23;20001;-64
2022/10/10 02:16:44;;;;;;;8.98;5.25;;;;;;;10.87;66.20;101306.81;6216900;23;20418;-64
2022/10/10 02:19:13;;;;;;;10.60;5.00;;;;;;;10.82;66.15;101297.91;6189914;23;20016;-64
2022/10/10 02:21:40;;;;;;;7.82;5.20;;;;;;;10.84;67.09;101302.38;6216735;23;20331;-64
2022/10/10 02:24:08;;;;;;;6.97;5.38;;;;;;;10.81;66.45;101298.78;6216539;23;20054;-63
2022/10/10 02:26:35;;;;;;;10.88;5.35;;;;;;;10.78;66.89;101299.59;6216792;23;20001;-65
2022/10/10 02:29:11;;;;;;;12.38;5.45;;;;;;;10.74;66.14;101300.41;6216555;23;20028;-65
2022/10/10 02:31:43;;;;;;;8.23;5.30;;;;;;;10.72;67.20;101295.13;6216667;23;20015;-63
2022/10/10 02:34:13;;;;;;;7.63;5.10;;;;;;;10.63;67.33;101291.44;6216977;23;20005;-63
2022/10/10 02:36:41;;;;;;;9.38;5.90;;;;;;;10.63;66.96;101297.59;6216610;23;20294;-63
2022/10/10 02:39:09;;;;;;;8.32;4.75;;;;;;;10.70;66.85;101286.25;6216335;23;20008;-64
2022/10/10 02:41:35;;;;;;;9.63;4.85;;;;;;;10.78;66.83;101289.03;6216777;23;20009;-65
2022/10/10 02:44:01;;;;;;;8.05;5.45;;;;;;;10.76;67.08;101285.50;6216619;23;20009;-62
2022/10/10 02:46:27;;;;;;;8.00;4.93;;;;;;;10.82;66.23;101284.69;6216341;23;20330;-64
2022/10/10 02:48:52;;;;;;;7.00;4.43;;;;;;;10.99;67.01;101275.28;6216322;23;20012;-63
2022/10/10 02:51:18;;;;;;;8.50;4.80;;;;;;;10.96;65.98;101280.50;6216371;23;20447;-65
2022/10/10 02:53:44;;;;;;;10.98;5.13;;;;;;;10.94;66.31;101279.63;6216369;23;20015;-63
2022/10/10 02:56:10;;;;;;;7.78;4.93;;;;;;;10.92;66.49;101273.38;6216547;23;20084;-63
2022/10/10 02:58:36;;;;;;;8.32;5.13;;;;;;;10.70;67.56;101266.88;6216396;23;20079;-64
2022/10/10 03:01:01;;;;;;;8.23;4.68;;;;;;;10.67;67.05;101273.00;6216227;23;20406;-64
2022/10/10 03:03:27;;;;;;;7.60;4.78;;;;;;;10.64;67.69;101267.66;6216224;23;20091;-64
2022/10/10 03:05:52;;;;;;;7.35;4.90;;;;;;;10.61;67.33;101269.34;6216175;23;20011;-63
2022/10/10 03:08:18;;;;;;;10.43;5.00;;;;;;;10.56;68.74;101257.81;6215798;23;20431;-64
2022/10/10 03:11:00;;;;;;;8.73;5.05;;;;;;;10.41;68.27;101266.38;6216142;23;20008;-65
2022/10/10 03:13:25;;;;;;;8.70;5.00;;;;;;;10.31;69.18;101264.41;6216270;23;20004;-63
2022/10/10 03:15:51;;;;;;;8.23;5.10;;;;;;;10.22;69.64;101265.97;6216169;23;20013;-63
2022/10/10 03:18:16;;;;;;;11.68;5.90;;;;;;;10.17;69.90;101262.38;6215787;23;20032;-64
2022/10/10 03:20:53;;;;;;;7.40;5.10;;;;;;;10.19;69.87;101255.38;6214549;23;20058;-64
2022/10/10 03:23:19;;;;;;;10.30;5.40;;;;;;;10.30;70.00;101262.63;6216096;23;20004;-64
2022/10/10 03:25:45;;;;;;;8.60;5.60;;;;;;;10.23;70.25;101251.91;6216109;23;20091;-64
2022/10/10 03:28:10;;;;;;;12.45;6.10;;;;;;;10.24;69.81;101259.03;6216277;23;20009;-64
2022/10/10 03:30:38;;;;;;;7.45;4.93;;;;;;;10.24;70.20;101255.47;6216011;23;20013;-64
2022/10/10 03:33:04;;;;;;;12.65;5.57;;;;;;;10.21;70.06;101258.94;6216385;23;20127;-64
2022/10/10 03:35:29;;;;;;;11.75;5.60;;;;;;;10.07;70.89;101257.78;6215647;23;20412;-63
2022/10/10 03:37:55;;;;;;;7.18;4.90;;;;;;;10.02;70.79;101255.06;6215915;23;20035;-64
2022/10/10 03:40:21;;;;;;;10.15;5.43;;;;;;;9.86;71.38;101263.53;6215607;23;20023;-64
2022/10/10 03:42:46;;;;;;;8.38;5.25;;;;;;;9.83;71.83;101258.19;6215944;23;20004;-63
2022/10/10 03:45:11;;;;;;;9.18;5.43;;;;;;;9.79;72.12;101265.13;6215909;23;20020;-63
2022/10/10 03:47:37;;;;;;;9.15;5.60;;;;;;;9.74;72.37;101266.78;6215875;23;20042;-64
2022/10/10 03:50:02;;;;;;;10.02;5.63;;;;;;;9.64;72.68;101264.84;6216043;23;20335;-64
2022/10/10 03:52:28;;;;;;;10.13;5.38;;;;;;;9.62;72.86;101258.63;6215888;23;20008;-64
2022/10/10 03:54:53;;;;;;;9.18;5.28;;;;;;;9.60;73.14;101268.25;6215890;23;20004;-64
2022/10/10 03:57:18;;;;;;;9.70;5.78;;;;;;;9.56;73.33;101263.78;6215839;23;20009;-63
2022/10/10 03:59:44;;;;;;;8.45;5.25;;;;;;;9.52;73.43;101264.56;6215778;23;20008;-62
2022/10/10 04:02:09;;;;;;;9.32;5.57;;;;;;;9.47;73.33;101261.84;6215791;23;20427;-64
2022/10/10 04:04:34;;;;;;;11.32;5.65;;;;;;;9.52;73.28;101256.66;6215831;23;20374;-64
2022/10/10 04:07:00;;;;;;;7.75;5.50;;;;;;;9.49;73.92;101261.84;6215674;23;20039;-64
2022/10/10 04:09:25;;;;;;;11.27;5.18;;;;;;;9.51;73.74;101254.88;6215451;23;20492;-63
2022/10/10 04:11:51;;;;;;;8.00;4.88;;;;;;;9.52;73.86;101260.19;6216101;23;20020;-62
2022/10/10 04:14:16;;;;;;;9.68;5.20;;;;;;;9.57;73.43;101256.75;6215771;23;20316;-64
2022/10/10 04:16:41;;;;;;;10.60;5.38;;;;;;;9.63;73.11;101260.38;6215822;23;20062;-64
2022/10/10 04:19:07;;;;;;;9.43;5.28;;;;;;;9.70;72.93;101256.16;6215696;23;20020;-63
2022/10/10 04:21:33;;;;;;;9.18;5.15;;;;;;;9.71;72.88;101252.63;6215710;23;20426;-64
2022/10/10 04:23:58;;;;;;;10.02;5.55;;;;;;;9.67;73.12;101258.72;6215571;23;20446;-64
2022/10/10 04:26:23;;;;;;;8.88;4.90;;;;;;;9.77;72.83;101251.03;6215694;23;20005;-64
2022/10/10 04:28:49;;;;;;;7.93;4.45;;;;;;;9.83;72.46;101262.56;6215542;23;20086;-65
2022/10/10 04:31:14;;;;;;;6.95;4.93;;;;;;;9.80;72.50;101250.19;6215619;23;20008;-64
2022/10/10 04:33:40;;;;;;;9.10;5.45;;;;;;;9.73;72.24;101251.81;6215539;23;20059;-65
2022/10/10 04:36:05;;;;;;;8.60;4.43;;;;;;;9.73;72.85;101251.81;6215564;23;20028;-63
2022/10/10 04:38:30;;;;;;;7.43;5.05;;;;;;;9.63;73.09;101260.38;6215328;23;20386;-64
2022/10/10 04:40:56;;;;;;;9.10;5.20;;;;;;;9.58;73.33;101261.16;6215487;23;20070;-64
2022/10/10 04:43:21;;;;;;;10.25;5.20;;;;;;;9.47;73.60;101259.19;6215494;23;20008;-63
2022/10/10 04:45:47;;;;;;;8.93;4.90;;;;;;;9.39;73.85;101259.88;6215485;23;20012;-64
2022/10/10 04:48:12;;;;;;;11.00;5.03;;;;;;;9.39;73.26;101254.59;6216881;23;20087;-64
2022/10/10 04:50:37;;;;;;;10.20;5.50;;;;;;;9.38;72.98;101258.06;6217455;23;20040;-64
2022/10/10 04:53:03;;;;;;;6.90;4.90;;;;;;;9.38;72.91;101256.34;6217404;23;20312;-64
2022/10/10 04:55:28;;;;;;;8.27;4.85;;;;;;;9.45;72.84;101257.38;6217407;23;20008;-64
2022/10/10 04:57:54;;;;;;;8.50;4.95;;;;;;;9.39;72.56;101250.22;6217339;23;20008;-64
2022/10/10 05:00:19;;;;;;;8.57;4.70;;;;;;;9.39;72.49;101250.22;6217706;23;20086;-65
2022/10/10 05:02:45;;;;;;;9.38;4.63;;;;;;;9.43;73.09;101261.72;6217389;23;20001;-64
2022/10/10 05:05:10;;;;;;;9.55;4.60;;;;;;;9.40;73.44;101257.28;6217546;23;20390;-65
2022/10/10 05:07:36;;;;;;;8.25;5.15;;;;;;;9.28;72.81;101246.44;6217621;23;20014;-64
2022/10/10 05:10:01;;;;;;;8.65;4.93;;;;;;;9.18;73.26;101249.75;6215543;23;20025;-65
2022/10/10 05:12:26;;;;;;;9.70;4.85;;;;;;;9.10;73.93;101246.91;6217656;23;20012;-65
2022/10/10 05:14:52;;;;;;;7.43;5.30;;;;;;;9.01;73.33;101250.22;6217305;23;20083;-64
2022/10/10 05:17:18;;;;;;;8.55;4.97;;;;;;;8.97;74.37;101245.75;6217306;23;20047;-63
2022/10/10 05:19:43;;;;;;;9.52;4.60;;;;;;;9.00;75.16;101243.19;6217009;23;20016;-63
2022/10/10 05:22:08;;;;;;;7.95;4.93;;;;;;;8.99;75.84;101246.69;6217424;23;20036;-65
2022/10/10 05:24:34;;;;;;;6.85;4.57;;;;;;;8.99;74.62;101248.41;6217449;23;20015;-65
2022/10/10 05:26:59;;;;;;;8.18;5.05;;;;;;;9.03;75.25;101248.50;6217138;23;20008;-65
2022/10/10 05:29:24;;;;;;;7.10;4.97;;;;;;;9.16;75.01;101249.69;6217065;23;20008;-64
2022/10/10 05:31:50;;;;;;;8.65;4.68;;;;;;;9.16;74.77;101251.44;6217245;23;20004;-64
2022/10/10 05:34:15;;;;;;;10.40;5.05;;;;;;;9.17;75.24;101250.59;6217176;23;20367;-64
2022/10/10 05:36:41;;;;;;;9.57;4.90;;;;;;;9.13;75.29;101247.00;6217195;23;20152;-64
2022/10/10 05:39:07;;;;;;;9.25;4.78;;;;;;;9.10;76.06;101249.56;6216813;23;20019;-64
2022/10/10 05:41:33;;;;;;;12.20;4.95;;;;;;;9.07;75.40;101248.59;6217360;23;20019;-65
2022/10/10 05:43:58;;;;;;;9.88;5.00;;;;;;;9.07;76.16;101253.88;6217399;23;20009;-65
2022/10/10 05:46:25;;;;;;;9.10;5.22;;;;;;;9.10;75.90;101259.22;6216968;23;20016;-65
2022/10/10 05:48:52;;;;;;;7.80;4.95;;;;;;;9.13;75.49;101260.19;6216810;23;20428;-65
2022/10/10 05:51:18;;;;;;;8.27;4.63;;;;;;;9.22;75.69;101247.22;6217265;23;20074;-64
2022/10/10 05:53:44;;;;;;;10.93;4.55;;;;;;;9.18;75.75;101249.75;6216825;23;20005;-67
2022/10/10 05:56:10;;;;;;;7.65;4.63;;;;;;;9.21;75.61;101255.97;6216965;23;20078;-64
2022/10/10 05:58:36;;;;;;;9.13;4.80;;;;;;;9.23;76.49;101250.72;6216530;23;20013;-64
2022/10/10 06:01:06;;;;;;;8.10;5.00;;;;;;;9.20;76.30;101258.56;6217178;23;20032;-63
2022/10/10 06:03:32;;;;;;;8.27;4.60;;;;;;;9.18;75.88;101260.28;6216890;23;20443;-65
2022/10/10 06:05:58;;;;;;;7.75;4.75;;;;;;;9.19;76.81;101248.88;6217148;23;20009;-64
2022/10/10 06:08:24;;;;;;;10.52;4.40;;;;;;;9.18;76.96;101255.91;6216845;23;20015;-64
2022/10/10 06:10:50;;;;;;;8.75;4.68;;;;;;;9.23;76.57;101250.72;6216732;23;20059;-64
2022/10/10 06:13:17;;;;;;;9.45;4.88;;;;;;;9.25;76.93;101254.31;6217118;23;20015;-63
2022/10/10 06:15:42;;;;;;;8.20;4.55;;;;;;;9.29;77.84;101256.13;6216770;23;20020;-64
2022/10/10 06:18:08;;;;;;;7.25;4.78;;;;;;;9.28;78.03;101259.63;6216454;23;20009;-65
2022/10/10 06:20:38;;;;;;;11.45;4.97;;;;;;;9.31;77.49;101256.19;6216637;23;20087;-65
2022/10/10 06:23:05;;;;;;;12.40;4.65;;;;;;;9.30;77.70;101255.28;6216982;23;20130;-63
2022/10/10 06:25:32;;;;;;;7.05;4.57;;;;;;;9.36;77.67;101254.53;6216897;23;20104;-64
2022/10/10 06:27:58;;;;;;;8.73;4.78;;;;;;;9.43;78.46;101259.09;6216509;23;20000;-63
2022/10/10 06:30:23;;;;;;;9.75;4.57;;;;;;;9.51;78.56;101257.53;6216945;23;20009;-64
2022/10/10 06:32:49;;;;;;;7.82;4.50;;;;;;;9.58;78.97;101266.44;6216412;23;20009;-65
2022/10/10 06:35:14;;;;;;;7.80;4.68;;;;;;;9.60;78.79;101270.00;6216426;23;20088;-65
2022/10/10 06:37:39;;;;;;;8.93;4.60;;;;;;;9.73;77.80;101272.06;6216476;23;20312;-65
2022/10/10 06:40:05;;;;;;;9.10;4.43;;;;;;;9.78;78.49;101268.63;6216205;23;20015;-65
2022/10/10 06:42:31;;;;;;;7.93;4.32;;;;;;;9.79;78.17;101273.06;6216423;23;20011;-64
2022/10/10 06:44:57;;;;;;;9.35;4.53;;;;;;;9.81;78.72;101272.19;6216441;23;20028;-64
2022/10/10 06:47:22;;;;;;;10.98;5.05;;;;;;;9.90;78.25;101282.97;6216428;23;20040;-63
2022/10/10 06:49:47;;;;;;;10.00;4.85;;;;;;;9.85;79.37;101280.22;6216693;23;20087;-64
2022/10/10 06:52:13;;;;;;;8.75;4.88;;;;;;;9.88;79.40;101280.28;6216738;23;20011;-63
2022/10/10 06:54:38;;;;;;;8.25;4.82;;;;;;;9.98;79.63;101286.66;6216417;23;20424;-64
2022/10/10 06:57:03;;;;;;;10.70;5.07;;;;;;;10.12;79.30;101285.16;6214824;23;20005;-64
2022/10/10 06:59:29;;;;;;;11.55;5.30;;;;;;;10.34;79.29;101280.31;6216299;23;20008;-64
2022/10/10 07:01:54;;;;;;;9.48;4.82;;;;;;;10.49;79.65;101280.59;6216268;23;20312;-64
2022/10/10 07:04:20;;;;;;;12.45;4.97;;;;;;;10.67;78.79;101278.28;6216329;23;20028;-64
2022/10/10 07:06:45;;;;;;;15.52;5.10;;;;;;;10.80;78.77;101282.03;6216636;23;20004;-62
2022/10/10 07:09:10;;;;;;;8.80;5.13;;;;;;;10.93;78.04;101280.47;6215882;23;20008;-63
2022/10/10 07:11:36;;;;;;;10.52;5.13;;;;;;;11.08;78.31;101288.63;6216234;23;20067;-64
2022/10/10 07:14:01;;;;;;;16.38;5.40;;;;;;;11.24;77.98;101292.44;6216101;23;20052;-63
2022/10/10 07:16:27;;;;;;;10.43;5.05;;;;;;;11.35;77.17;101293.47;6216177;23;20382;-63
2022/10/10 07:18:52;;;;;;;9.63;4.82;;;;;;;11.55;77.18;101299.03;6215793;23;20024;-64
2022/10/10 07:21:17;;;;;;;11.63;5.00;;;;;;;11.65;76.62;101281.53;6216081;23;20046;-64
2022/10/10 07:23:43;;;;;;;14.13;5.20;;;;;;;11.81;77.00;101285.28;6216136;23;20092;-64
2022/10/10 07:26:14;;;;;;;10.65;5.00;;;;;;;12.00;76.43;101288.22;6216083;23;20031;-64
2022/10/10 07:28:39;;;;;;;11.93;5.07;;;;;;;12.12;76.51;101286.56;6215916;23;20004;-64
2022/10/10 07:31:08;;;;;;;9.43;5.00;;;;;;;12.33;75.34;101296.50;6216027;23;20058;-64
2022/10/10 07:33:40;;;;;;;13.43;5.40;;;;;;;12.64;74.54;101288.00;6215902;23;20439;-63
2022/10/10 07:36:06;;;;;;;12.25;5.45;;;;;;;12.78;74.18;101291.66;6216019;23;20007;-64
2022/10/10 07:38:32;;;;;;;9.32;5.00;;;;;;;13.01;73.62;101293.59;6215761;23;20013;-63
2022/10/10 07:40:58;;;;;;;15.95;5.30;;;;;;;13.19;73.23;101293.78;6216311;23;20327;-64
2022/10/10 07:43:23;;;;;;;11.75;5.00;;;;;;;13.35;73.08;101300.09;6216034;23;20008;-63
2022/10/10 07:45:49;;;;;;;11.50;5.10;;;;;;;13.45;72.39;101301.06;6216257;23;20009;-63
2022/10/10 07:48:14;;;;;;;11.05;5.15;;;;;;;13.61;71.91;101299.34;6215900;23;20446;-64
2022/10/10 07:50:41;;;;;;;10.95;4.95;;;;;;;13.76;70.98;101305.66;6215834;23;20005;-64
2022/10/10 07:53:07;;;;;;;12.20;4.93;;;;;;;13.96;71.12;101312.81;6216161;23;20012;-64
2022/10/10 07:55:33;;;;;;;10.50;4.97;;;;;;;14.08;70.54;101318.16;6215834;23;20009;-63
2022/10/10 07:58:01;;;;;;;12.60;4.93;;;;;;;14.14;69.85;101318.22;6215776;23;20004;-65
2022/10/10 08:00:27;;;;;;;9.77;4.78;;;;;;;14.11;69.03;101325.28;6215779;23;20009;-64
2022/10/10 08:02:52;;;;;;;9.48;4.90;;;;;;;14.21;69.93;101324.41;6215832;23;20494;-64
2022/10/10 08:05:17;;;;;;;12.45;4.82;;;;;;;14.33;69.87;101331.56;6215818;23;20088;-64
2022/10/10 08:07:43;;;;;;;14.10;5.07;;;;;;;14.40;69.74;101331.59;6216020;23;20330;-64
2022/10/10 08:10:08;;;;;;;12.70;4.60;;;;;;;14.55;69.11;101329.88;6215508;23;20079;-63
2022/10/10 08:12:34;;;;;;;13.75;5.10;;;;;;;14.66;68.59;101328.13;6216084;23;20016;-65
2022/10/10 08:15:00;;;;;;;14.80;4.85;;;;;;;14.75;68.39;101317.50;6216034;23;20004;-64
2022/10/10 08:17:25;;;;;;;13.23;4.63;;;;;;;15.07;68.07;101322.81;6189199;23;20395;-64
2022/10/10 08:19:51;;;;;;;13.77;4.93;;;;;;;15.22;66.45;101327.28;6215461;23;20342;-65
2022/10/10 08:22:16;;;;;;;10.60;4.50;;;;;;;15.36;66.25;101328.13;6215612;23;20004;-65
2022/10/10 08:24:41;;;;;;;10.85;4.50;;;;;;;15.58;65.85;101326.31;6215944;23;20008;-65
2022/10/10 08:27:07;;;;;;;10.38;4.78;;;;;;;15.82;65.47;101319.22;6215580;23;20015;-65
2022/10/10 08:29:32;;;;;;;12.23;5.15;;;;;;;15.89;64.68;101327.19;6216016;23;20019;-63
2022/10/10 08:31:58;;;;;;;9.52;5.03;;;;;;;16.06;64.73;101324.47;6215881;23;20083;-64
2022/10/10 08:34:23;;;;;;;12.20;4.72;;;;;;;16.30;64.06;101325.22;6215570;23;20004;-64
2022/10/10 08:36:49;;;;;;;9.85;5.00;;;;;;;16.33;63.59;101328.75;6215652;23;20008;-64
2022/10/10 08:39:15;;;;;;;9.63;4.38;;;;;;;16.36;62.36;101334.09;6215646;23;20092;-65
2022/10/10 08:41:43;;;;;;;15.38;5.25;;;;;;;16.35;62.23;101329.63;6215552;23;20004;-63
2022/10/10 08:44:24;;;;;;;11.80;4.93;;;;;;;16.49;62.39;101321.56;6215431;23;20034;-64
2022/10/10 08:46:55;;;;;;;13.00;5.00;;;;;;;16.61;61.50;101324.13;6215632;23;20004;-65
2022/10/10 08:49:39;;;;;;;14.10;5.50;;;;;;;16.73;62.50;101328.53;6216080;23;20001;-64
2022/10/10 08:52:30;;;;;;;11.18;4.93;;;;;;;17.03;61.89;101332.78;6213921;23;20501;-64
2022/10/10 08:55:00;;;;;;;12.85;5.07;;;;;;;17.13;60.44;101328.22;6215635;23;20084;-65
2022/10/10 08:57:30;;;;;;;11.88;4.80;;;;;;;17.36;60.75;101325.38;6215435;23;20047;-65
2022/10/10 09:00:00;;;;;;;17.15;5.22;;;;;;;17.43;59.97;101327.97;6188971;23;20005;-65
2022/10/10 09:02:38;;;;;;;11.48;4.45;;;;;;;17.78;59.77;101326.75;6215594;23;20095;-64
2022/10/10 09:05:04;;;;;;;10.27;4.60;;;;;;;17.98;58.73;101322.03;6215825;23;20001;-64
2022/10/10 09:07:55;;;;;;;10.13;4.90;;;;;;;18.20;58.36;101320.00;6215325;23;20008;-64
2022/10/10 09:10:38;;;;;;;8.80;4.20;;;;;;;18.44;57.64;101331.25;6215429;23;20062;-64
2022/10/10 09:13:08;;;;;;;14.05;4.60;;;;;;;18.77;57.13;101321.91;6215418;23;20386;-65
2022/10/10 09:15:42;;;;;;;10.07;4.30;;;;;;;18.89;55.87;101336.88;6215524;23;20005;-63
2022/10/10 09:18:07;;;;;;;8.05;4.40;;;;;;;19.20;54.15;101330.09;6215563;23;20011;-65
2022/10/10 09:20:46;;;;;;;12.82;4.22;;;;;;;19.19;54.61;101341.75;6215379;23;20094;-66
2022/10/10 09:23:32;;;;;;;11.75;4.53;;;;;;;19.12;54.30;101337.38;6215447;23;20328;-63
2022/10/10 09:26:03;;;;;;;10.65;4.50;;;;;;;18.97;54.76;101343.91;6214161;23;20004;-65
2022/10/10 09:28:40;;;;;;;14.07;4.17;;;;;;;19.08;55.67;101348.19;6215249;23;20355;-64
2022/10/10 09:31:13;;;;;;;10.02;4.22;;;;;;;19.07;54.66;101349.97;6215380;23;20231;-66
2022/10/10 09:33:48;;;;;;;9.50;4.10;;;;;;;19.13;54.20;101351.66;6214154;23;20390;-65
2022/10/10 09:36:19;;;;;;;8.52;4.43;;;;;;;18.96;54.58;101351.94;6217169;23;20008;-64
2022/10/10 09:38:54;;;;;;;10.40;4.53;;;;;;;18.97;55.42;101359.06;6216920;23;20009;-64
2022/10/10 09:41:32;;;;;;;10.27;4.40;;;;;;;19.04;54.67;101355.38;6217387;23;20005;-65
2022/10/10 09:44:02;;;;;;;8.15;4.25;;;;;;;19.17;54.27;101364.97;6217425;23;20004;-64
2022/10/10 09:46:27;;;;;;;10.40;4.07;;;;;;;19.37;53.88;101363.78;6217126;23;20004;-64
2022/10/10 09:48:54;;;;;;;10.85;4.57;;;;;;;19.11;55.02;101372.25;6217134;23;20079;-63
2022/10/10 09:51:20;;;;;;;14.35;4.38;;;;;;;19.12;54.39;101369.53;6217005;23;20013;-65
2022/10/10 09:53:47;;;;;;;10.80;4.22;;;;;;;19.30;54.77;101380.84;6217045;23;20013;-65
2022/10/10 09:56:18;;;;;;;11.07;3.95;;;;;;;19.67;53.27;101375.78;6217289;23;20039;-65
2022/10/10 09:58:46;;;;;;;12.30;4.55;;;;;;;19.69;53.89;101372.13;6217214;23;20008;-64
2022/10/10 10:01:21;;;;;;;12.07;4.30;;;;;;;19.51;53.53;101378.69;6216939;23;20059;-64
2022/10/10 10:04:13;;;;;;;13.82;4.65;;;;;;;19.35;54.07;101377.19;6217097;23;20055;-63
2022/10/10 10:06:43;;;;;;;8.32;4.20;;;;;;;19.12;53.99;101372.22;6216844;23;20338;-66
2022/10/10 10:09:15;;;;;;;10.02;4.15;;;;;;;19.08;54.40;101369.63;6216513;23;20076;-64
2022/10/10 10:11:42;;;;;;;11.30;3.90;;;;;;;18.98;54.02;101368.88;6217130;23;20005;-66
2022/10/10 10:14:25;;;;;;;11.90;4.38;;;;;;;18.85;54.97;101364.63;6215177;23;20020;-66
2022/10/10 10:16:53;;;;;;;14.13;4.13;;;;;;;18.87;55.11;101373.50;6216811;23;20008;-66
2022/10/10 10:19:34;;;;;;;13.70;4.38;;;;;;;18.83;56.01;101377.13;6216585;23;20092;-64
2022/10/10 10:21:59;;;;;;;11.60;4.45;;;;;;;18.74;55.65;101376.34;6215122;23;20335;-65
2022/10/10 10:24:35;;;;;;;14.48;4.38;;;;;;;18.71;55.89;101379.09;6216746;23;20011;-65
2022/10/10 10:27:12;;;;;;;12.68;4.35;;;;;;;18.57;56.57;101370.31;6216663;23;20005;-66
2022/10/10 10:29:37;;;;;;;12.27;4.55;;;;;;;18.38;57.45;101375.06;6216718;23;20015;-64
2022/10/10 10:32:21;;;;;;;11.20;4.78;;;;;;;18.31;57.68;101383.16;6216555;23;20008;-64
2022/10/10 10:35:19;;;;;;;8.43;4.43;;;;;;;18.58;57.10;101381.91;6216909;23;20063;-63
2022/10/10 10:38:00;;;;;;;12.57;4.53;;;;;;;19.00;57.20;101377.75;6193167;23;20019;-64
2022/10/10 10:41:07;;;;;;;16.30;4.78;;;;;;;19.32;55.98;101389.78;6216420;23;20012;-62
2022/10/10 10:44:11;;;;;;;9.40;4.10;;;;;;;19.71;54.19;101386.41;6158529;23;20012;-65
2022/10/10 10:46:56;;;;;;;10.23;4.13;;;;;;;20.11;53.14;101388.31;6186344;23;20034;-63
2022/10/10 10:49:33;;;;;;;8.55;4.05;;;;;;;20.59;51.62;101390.03;6188159;23;20005;-64
2022/10/10 10:52:04;;;;;;;7.72;3.83;;;;;;;20.54;51.12;101392.84;6216592;23;20027;-63
2022/10/10 10:54:49;;;;;;;10.70;4.10;;;;;;;20.41;51.47;101388.63;6216442;23;20015;-64
2022/10/10 10:57:42;;;;;;;12.60;4.63;;;;;;;20.13;52.48;101405.28;6216698;23;20008;-64
2022/10/10 11:00:10;;;;;;;8.52;4.10;;;;;;;20.12;52.18;101405.31;6216402;23;20335;-65
2022/10/10 11:02:52;;;;;;;9.27;4.60;;;;;;;20.34;51.45;101405.75;6216683;23;20008;-62
2022/10/10 11:05:26;;;;;;;10.68;4.60;;;;;;;20.44;51.28;101402.84;6216355;23;20240;-64
2022/10/10 11:08:06;;;;;;;13.00;4.40;;;;;;;20.72;50.79;101411.22;6214559;23;20308;-65
2022/10/10 11:11:16;;;;;;;13.57;4.60;;;;;;;20.68;51.39;101414.88;6216150;23;20043;-64
2022/10/10 11:14:20;;;;;;;13.00;4.63;;;;;;;20.72;52.02;101413.91;6216320;23;20000;-65
2022/10/10 11:16:51;;;;;;;13.73;4.78;;;;;;;20.84;50.73;101410.06;6216266;23;20001;-65
2022/10/10 11:19:30;;;;;;;16.70;4.35;;;;;;;20.58;51.26;101423.19;6216156;23;20020;-62
2022/10/10 11:22:07;;;;;;;15.43;5.35;;;;;;;20.72;50.83;101432.69;6216278;23;20035;-64
2022/10/10 11:24:53;;;;;;;11.80;4.20;;;;;;;21.03;51.18;101426.66;6216163;23;20016;-64
2022/10/10 11:27:25;;;;;;;10.05;4.15;;;;;;;21.34;49.64;101426.84;6216408;23;20009;-63
2022/10/10 11:30:16;;;;;;;14.93;5.03;;;;;;;21.79;50.28;101429.25;6216123;23;20000;-65
2022/10/10 11:32:54;;;;;;;13.45;4.68;;;;;;;22.10;48.83;101439.19;6216178;23;20054;-63
2022/10/10 11:35:29;;;;;;;8.82;4.80;;;;;;;22.23;47.99;101433.50;6216059;23;20040;-64
2022/10/10 11:38:04;;;;;;;9.27;4.65;;;;;;;22.27;47.91;101425.28;6216246;23;20444;-64